Time;durP1;ratioP1;P1;durP2;ratioP2;P2;SDS_P1;SDS_P2;PMS_P1;PMS_P2;Temp;Humidity;BMP_temperature;BMP_pressure;BME280_temperature;BME280_humidity;BME280_pressure;Samples;Min_cycle;Max_cycle;Signal;HPM_P1;HPM_P2
2023/05/31 00:00:47;;;;;;;;;;;18.60;41.90;;;14.68;64.40;95519.81;5027676;28;19913;-53
2023/05/31 00:03:13;;;;;;;;;;;18.50;41.90;;;14.65;64.36;95506.22;5025727;28;19931;-47
2023/05/31 00:05:39;;;;;;;;;;;18.50;42.00;;;14.60;64.69;95508.94;5024812;28;20003;-49
2023/05/31 00:08:05;;;;;;;;;;;18.50;42.10;;;14.56;64.83;95511.41;5009532;28;19909;-48
2023/05/31 00:10:31;;;;;;;;;;;18.50;42.20;;;14.57;64.62;95513.81;5034451;28;20339;-52
2023/05/31 00:12:56;;;;;;;;;;;18.40;42.20;;;14.56;64.95;95520.25;5029159;28;19948;-53
2023/05/31 00:15:22;;;;;;;;;;;18.40;42.20;;;14.52;64.66;95516.56;5034567;28;19913;-50
2023/05/31 00:17:48;;;;;;;;;;;18.40;42.20;;;14.45;65.14;95513.44;5034773;28;19916;-47
2023/05/31 00:20:14;;;;;;;;;;;18.30;42.30;;;14.42;65.24;95511.34;5023549;28;19912;-49
2023/05/31 00:22:39;;;;;;;;;;;18.30;42.30;;;14.41;65.25;95509.72;5034361;28;19948;-47
2023/05/31 00:25:06;;;;;;;;;;;18.30;42.40;;;14.39;64.97;95506.56;5028010;28;20290;-48
2023/05/31 00:27:31;;;;;;;;;;;18.30;42.40;;;14.37;64.65;95503.38;5030812;28;19912;-50
2023/05/31 00:29:57;;;;;;;;;;;18.20;42.40;;;14.37;65.05;95503.38;5034367;28;20367;-46
2023/05/31 00:32:23;;;;;;;;;;;18.20;42.50;;;14.44;64.63;95505.69;5015955;28;20190;-47
2023/05/31 00:34:48;;;;;;;;;;;18.20;42.70;;;14.42;65.07;95511.34;5014510;28;20256;-50
2023/05/31 00:37:14;;;;;;;;;;;18.20;42.60;;;14.39;65.08;95509.25;5013047;28;19948;-51
2023/05/31 00:39:40;;;;;;;;;;;18.20;42.60;;;14.35;65.30;95509.03;5023740;28;19973;-50
2023/05/31 00:42:06;;;;;;;;;;;18.20;42.60;;;14.28;65.57;95513.13;5018074;28;19909;-50
2023/05/31 00:44:32;;;;;;;;;;;18.10;42.60;;;14.25;65.64;95511.03;5012982;28;20439;-50
2023/05/31 00:46:58;;;;;;;;;;;18.10;42.70;;;14.21;65.33;95504.66;5014492;28;19996;-51
2023/05/31 00:49:26;;;;;;;;;;;18.10;42.80;;;14.22;65.72;95501.69;5021484;28;19956;-54
2023/05/31 00:51:53;;;;;;;;;;;18.00;42.90;;;14.23;65.37;95499.84;5010754;28;19944;-49
2023/05/31 00:54:19;;;;;;;;;;;18.00;43.10;;;14.25;66.69;95508.34;5014135;28;19916;-50
2023/05/31 00:56:45;;;;;;;;;;;18.00;43.10;;;14.19;65.73;95504.16;5012838;28;20482;-50
2023/05/31 00:59:11;;;;;;;;;;;18.00;43.20;;;14.17;65.77;95496.41;5014021;28;20367;-52
2023/05/31 01:01:38;;;;;;;;;;;18.00;43.30;;;14.20;66.11;95513.81;5027855;28;19913;-49
2023/05/31 01:04:05;;;;;;;;;;;18.00;43.30;;;14.10;66.17;95491.44;5004816;28;19913;-50
2023/05/31 01:06:32;;;;;;;;;;;18.00;43.40;;;14.09;66.16;95492.50;5028420;28;20016;-54
2023/05/31 01:09:04;;;;;;;;;;;18.00;43.50;;;14.09;66.50;95491.69;5013160;28;20368;-53
2023/05/31 01:11:57;;;;;;;;;;;17.90;43.50;;;14.02;66.63;95480.56;5013816;28;19909;-54
2023/05/31 01:15:01;;;;;;;;;;;17.90;43.60;;;13.98;66.88;95479.53;5012667;28;19909;-54
2023/05/31 01:17:55;;;;;;;;;;;17.90;43.70;;;13.97;66.82;95488.66;5013823;28;19909;-50
2023/05/31 01:20:27;;;;;;;;;;;17.80;43.90;;;13.94;66.81;95484.66;5002782;28;20279;-49
2023/05/31 01:23:17;;;;;;;;;;;17.80;43.90;;;13.91;66.80;95490.59;5013612;28;19913;-51
2023/05/31 01:26:12;;;;;;;;;;;17.80;43.90;;;13.92;66.86;95483.38;5011918;28;19909;-51
2023/05/31 01:28:41;;;;;;;;;;;17.80;44.00;;;13.91;67.18;95492.47;5013534;28;20386;-47
2023/05/31 01:31:11;;;;;;;;;;;17.80;44.40;;;13.83;67.40;95485.88;5011153;28;19909;-49
2023/05/31 01:33:38;;;;;;;;;;;17.70;44.10;;;13.83;67.29;95494.72;5009757;28;20359;-52
2023/05/31 01:36:04;;;;;;;;;;;17.70;44.30;;;13.85;67.98;95494.41;5028267;28;19909;-52
2023/05/31 01:38:30;;;;;;;;;;;17.70;44.40;;;13.76;67.61;95494.28;5008958;28;19966;-49
2023/05/31 01:40:58;;;;;;;;;;;17.70;44.40;;;13.73;67.83;95486.81;5013215;28;19909;-51
2023/05/31 01:43:27;;;;;;;;;;;17.70;44.40;;;13.74;68.01;95493.75;5016388;28;20379;-49
2023/05/31 01:45:55;;;;;;;;;;;17.60;44.40;;;13.67;68.15;95490.63;5013102;28;20322;-50
2023/05/31 01:48:25;;;;;;;;;;;17.60;44.40;;;13.68;68.44;95494.09;5028410;28;19908;-48
2023/05/31 01:50:53;;;;;;;;;;;17.60;44.40;;;13.64;68.34;95491.19;5026674;28;19913;-53
2023/05/31 01:53:19;;;;;;;;;;;17.60;44.60;;;13.61;68.95;95486.41;5028402;28;19917;-51
2023/05/31 01:55:46;;;;;;;;;;;17.50;44.60;;;13.55;69.10;95496.38;5027179;28;19944;-47
2023/05/31 01:58:13;;;;;;;;;;;17.50;44.80;;;13.56;69.10;95486.47;5013193;28;19924;-54
2023/05/31 02:00:41;;;;;;;;;;;17.50;44.80;;;13.50;69.26;95483.03;5010667;28;19956;-52
2023/05/31 02:03:07;;;;;;;;;;;17.50;44.90;;;13.51;69.38;95484.66;5011387;28;20360;-52
2023/05/31 02:05:33;;;;;;;;;;;17.40;44.90;;;13.48;69.44;95492.47;5027944;28;19939;-53
2023/05/31 02:07:59;;;;;;;;;;;17.40;45.00;;;13.44;69.63;95492.22;5011202;28;20368;-51
2023/05/31 02:10:24;;;;;;;;;;;17.40;45.10;;;13.42;70.10;95491.72;5012690;28;19917;-49
2023/05/31 02:12:53;;;;;;;;;;;17.40;45.10;;;13.39;70.38;95494.97;5010682;28;20261;-51
2023/05/31 02:15:19;;;;;;;;;;;17.30;45.20;;;13.33;70.34;95501.44;5012622;28;19915;-53
2023/05/31 02:17:50;;;;;;;;;;;17.30;45.20;;;13.27;70.51;95492.66;5012411;28;19913;-52
2023/05/31 02:20:17;;;;;;;;;;;17.30;45.20;;;13.26;70.78;95498.31;5007248;28;19913;-48
2023/05/31 02:22:45;;;;;;;;;;;17.20;45.20;;;13.20;71.14;95497.53;5012626;28;19960;-52
2023/05/31 02:25:15;;;;;;;;;;;17.20;45.30;;;13.13;71.65;95494.38;5021624;28;19916;-49
2023/05/31 02:27:42;;;;;;;;;;;17.20;45.30;;;13.11;71.27;95492.00;5010344;28;19908;-50
2023/05/31 02:30:09;;;;;;;;;;;17.10;45.40;;;13.14;71.23;95491.44;5012014;28;20380;-48
2023/05/31 02:32:37;;;;;;;;;;;17.10;45.70;;;13.14;71.41;95494.09;5011269;28;20004;-48
2023/05/31 02:35:09;;;;;;;;;;;17.10;45.70;;;13.07;71.48;95490.97;5012364;28;20004;-52
2023/05/31 02:37:38;;;;;;;;;;;17.00;45.70;;;13.07;71.72;95490.19;5007957;28;20000;-49
2023/05/31 02:40:08;;;;;;;;;;;17.00;45.80;;;13.06;71.81;95485.88;5012425;28;19910;-50
2023/05/31 02:42:36;;;;;;;;;;;17.00;45.80;;;13.02;71.80;95483.00;5011661;28;19913;-50
2023/05/31 02:45:02;;;;;;;;;;;17.00;45.90;;;13.07;71.84;95482.16;5011502;28;19913;-54
2023/05/31 02:47:28;;;;;;;;;;;17.00;46.00;;;13.02;71.70;95487.53;5012406;28;19970;-48
2023/05/31 02:49:54;;;;;;;;;;;17.00;45.90;;;13.03;71.70;95481.09;5000524;28;19914;-55
2023/05/31 02:52:20;;;;;;;;;;;16.90;45.90;;;13.01;71.86;95484.06;4999106;28;19909;-51
2023/05/31 02:54:46;;;;;;;;;;;16.90;46.00;;;13.02;71.61;95479.53;5008675;28;19912;-51
2023/05/31 02:57:12;;;;;;;;;;;16.90;46.10;;;13.01;72.11;95470.72;5011642;28;19958;-52
2023/05/31 02:59:37;;;;;;;;;;;16.90;46.30;;;13.00;72.02;95469.09;5027005;28;19920;-48
2023/05/31 03:02:04;;;;;;;;;;;16.90;46.40;;;12.95;71.91;95464.59;5004253;28;19943;-47
2023/05/31 03:04:31;;;;;;;;;;;16.90;46.50;;;12.94;72.22;95463.03;5011841;28;20346;-50
2023/05/31 03:06:57;;;;;;;;;;;16.90;46.60;;;12.94;72.26;95467.53;5010896;28;19960;-48
2023/05/31 03:09:23;;;;;;;;;;;16.90;46.70;;;12.93;72.41;95476.66;5005318;28;19963;-52
2023/05/31 03:11:48;;;;;;;;;;;16.90;46.70;;;12.93;72.24;95464.06;4993178;28;20471;-52
2023/05/31 03:14:14;;;;;;;;;;;16.90;46.70;;;12.94;72.29;95472.88;5004259;28;19975;-52
2023/05/31 03:16:40;;;;;;;;;;;16.90;46.70;;;12.93;72.46;95477.44;5023419;28;19909;-54
2023/05/31 03:19:06;;;;;;;;;;;16.80;46.80;;;12.89;72.54;95481.78;5016975;28;19917;-53
2023/05/31 03:21:31;;;;;;;;;;;16.90;46.80;;;12.86;73.49;95486.88;5017535;28;20349;-54
2023/05/31 03:23:57;;;;;;;;;;;16.80;46.70;;;12.87;73.04;95488.47;5018884;28;20287;-53
2023/05/31 03:26:23;;;;;;;;;;;16.80;46.60;;;12.76;73.92;95492.31;5004655;28;19920;-52
2023/05/31 03:28:48;;;;;;;;;;;16.70;46.60;;;12.60;74.54;95489.78;5018652;28;19912;-50
2023/05/31 03:31:15;;;;;;;;;;;16.70;46.60;;;12.46;75.20;95500.28;5016141;28;19916;-53
2023/05/31 03:33:40;;;;;;;;;;;16.60;46.60;;;12.39;75.32;95501.69;5003038;28;20356;-56
2023/05/31 03:36:07;;;;;;;;;;;16.50;46.60;;;12.42;75.31;95493.91;5011279;28;19947;-52
2023/05/31 03:38:32;;;;;;;;;;;16.50;46.70;;;12.36;75.97;95500.34;5010018;28;19909;-50
2023/05/31 03:40:58;;;;;;;;;;;16.50;46.80;;;12.27;76.98;95497.47;5011276;28;19916;-50
2023/05/31 03:43:24;;;;;;;;;;;16.40;46.80;;;12.17;77.02;95508.22;5006666;28;20011;-54
2023/05/31 03:45:50;;;;;;;;;;;16.30;46.90;;;12.09;77.78;95500.78;4998501;28;20000;-55
2023/05/31 03:48:16;;;;;;;;;;;16.30;46.90;;;12.06;77.72;95503.19;5011286;28;19944;-53
2023/05/31 03:50:43;;;;;;;;;;;16.20;47.00;;;11.99;77.92;95517.66;5006516;28;20027;-51
2023/05/31 03:53:09;;;;;;;;;;;16.20;47.10;;;11.93;77.15;95516.06;5011541;28;20019;-54
2023/05/31 03:55:34;;;;;;;;;;;16.10;47.10;;;11.80;79.37;95514.75;5006544;28;20348;-50
2023/05/31 03:58:00;;;;;;;;;;;16.00;47.10;;;11.64;80.48;95521.25;5014291;28;19944;-52
2023/05/31 04:00:26;;;;;;;;;;;16.00;47.80;;;11.63;79.83;95518.84;5014426;28;20012;-54
2023/05/31 04:02:51;;;;;;;;;;;16.00;47.40;;;11.55;80.99;95521.00;5013540;28;20358;-50
2023/05/31 04:05:17;;;;;;;;;;;15.90;47.40;;;11.50;81.33;95520.22;5000326;28;20388;-49
2023/05/31 04:07:43;;;;;;;;;;;15.80;47.50;;;11.34;83.38;95520.28;4994855;28;20411;-56
2023/05/31 04:10:09;;;;;;;;;;;15.70;47.60;;;11.39;83.32;95521.31;5007858;28;19923;-50
2023/05/31 04:12:35;;;;;;;;;;;15.70;47.70;;;11.41;83.82;95528.00;5013357;28;19913;-53
2023/05/31 04:15:01;;;;;;;;;;;15.70;47.80;;;11.48;83.05;95523.16;5003980;28;19913;-56
2023/05/31 04:17:27;;;;;;;;;;;15.70;48.00;;;11.56;82.66;95519.94;5007324;28;19909;-52
2023/05/31 04:19:52;;;;;;;;;;;15.70;48.10;;;11.68;81.97;95524.16;5003694;28;19940;-55
2023/05/31 04:22:18;;;;;;;;;;;15.80;48.20;;;11.79;82.42;95528.41;5007752;28;19909;-54
2023/05/31 04:24:45;;;;;;;;;;;15.80;48.30;;;11.93;82.23;95528.63;5003117;28;19924;-51
2023/05/31 04:27:11;;;;;;;;;;;15.90;48.30;;;12.11;81.42;95525.34;4998008;28;19992;-48
2023/05/31 04:29:37;;;;;;;;;;;16.00;48.30;;;12.30;79.59;95527.38;5003680;28;19949;-50
2023/05/31 04:32:04;;;;;;;;;;;16.10;48.30;;;12.49;78.58;95531.00;5001621;28;20735;-51
2023/05/31 04:34:30;;;;;;;;;;;16.20;48.30;;;12.65;78.10;95539.69;5003826;28;20326;-52
2023/05/31 04:36:56;;;;;;;;;;;16.40;48.30;;;12.82;76.48;95539.31;5011068;28;19917;-51
2023/05/31 04:39:22;;;;;;;;;;;16.50;48.20;;;13.00;76.24;95535.94;5003883;28;20000;-50
2023/05/31 04:41:48;;;;;;;;;;;16.70;48.10;;;13.11;74.43;95545.47;5027167;28;19996;-55
2023/05/31 04:44:15;;;;;;;;;;;16.90;48.00;;;13.28;74.35;95542.41;5009802;28;20307;-49
2023/05/31 04:46:40;;;;;;;;;;;17.00;47.90;;;13.42;73.40;95550.56;5013493;28;19940;-52
2023/05/31 04:49:07;;;;;;;;;;;17.10;47.70;;;13.52;71.63;95550.47;5009706;28;20407;-55
2023/05/31 04:51:33;;;;;;;;;;;17.30;47.60;;;13.58;70.61;95546.66;5012338;28;20338;-53
2023/05/31 04:53:59;;;;;;;;;;;17.50;47.60;;;13.73;70.49;95552.94;5013541;28;19909;-50
2023/05/31 04:56:25;;;;;;;;;;;17.60;47.40;;;13.79;69.92;95554.47;5012926;28;19919;-53
2023/05/31 04:58:51;;;;;;;;;;;17.80;47.30;;;13.88;69.36;95553.56;5013893;28;19909;-55
2023/05/31 05:01:17;;;;;;;;;;;17.90;47.10;;;14.00;68.96;95558.50;5012301;28;19938;-50
2023/05/31 05:03:44;;;;;;;;;;;18.10;46.90;;;13.99;68.69;95562.25;5006867;28;20140;-50
2023/05/31 05:06:18;;;;;;;;;;;18.30;46.80;;;14.17;68.12;95554.56;5013194;28;20345;-48
2023/05/31 05:08:45;;;;;;;;;;;18.40;46.60;;;14.19;68.02;95561.19;5002424;28;19975;-49
2023/05/31 05:11:12;;;;;;;;;;;18.50;46.40;;;14.21;67.69;95556.34;5010068;28;19917;-49
2023/05/31 05:13:38;;;;;;;;;;;18.70;46.30;;;14.34;67.22;95562.88;5005492;28;20004;-48
2023/05/31 05:16:04;;;;;;;;;;;18.80;46.10;;;14.42;66.68;95559.56;5007465;28;20371;-50
2023/05/31 05:18:31;;;;;;;;;;;18.90;46.00;;;14.46;67.10;95560.59;5013227;28;19913;-48
2023/05/31 05:20:57;;;;;;;;;;;19.10;45.90;;;14.56;66.16;95557.78;5011004;28;19952;-51
2023/05/31 05:23:24;;;;;;;;;;;19.30;45.80;;;14.71;65.34;95561.34;5001542;28;19917;-53
2023/05/31 05:25:50;;;;;;;;;;;19.40;45.70;;;14.87;65.50;95554.66;5011066;28;20016;-49
2023/05/31 05:28:16;;;;;;;;;;;19.50;45.50;;;15.04;64.75;95554.09;4996382;28;20094;-51
2023/05/31 05:30:43;;;;;;;;;;;19.70;45.40;;;15.11;63.49;95546.50;5010942;28;20028;-52
2023/05/31 05:33:08;;;;;;;;;;;19.80;45.40;;;15.25;63.20;95546.53;5010301;28;19924;-48
2023/05/31 05:35:34;;;;;;;;;;;19.90;45.20;;;15.42;62.63;95554.03;5012019;28;19999;-50
2023/05/31 05:38:00;;;;;;;;;;;20.10;45.00;;;15.46;61.59;95545.06;5010952;28;19966;-51
2023/05/31 05:40:26;;;;;;;;;;;20.30;44.90;;;15.46;62.04;95561.19;5027783;28;19975;-51
2023/05/31 05:42:53;;;;;;;;;;;20.40;44.60;;;15.48;61.09;95559.00;5005881;28;20376;-51
2023/05/31 05:45:19;;;;;;;;;;;20.50;44.40;;;15.61;61.16;95557.44;5011583;28;19939;-50
2023/05/31 05:47:48;;;;;;;;;;;20.70;44.20;;;15.70;61.38;95560.25;5012164;28;20364;-54
2023/05/31 05:50:14;;;;;;;;;;;20.80;44.10;;;15.70;60.71;95560.25;5011572;28;19947;-53
2023/05/31 05:52:40;;;;;;;;;;;20.90;43.90;;;15.98;59.92;95561.03;5013077;28;19923;-55
2023/05/31 05:55:06;;;;;;;;;;;21.10;43.80;;;16.05;59.47;95552.59;5011383;28;19941;-52
2023/05/31 05:57:32;;;;;;;;;;;21.20;43.60;;;16.24;58.61;95563.22;5012230;28;20054;-49
2023/05/31 05:59:58;;;;;;;;;;;21.40;43.50;;;16.32;57.86;95563.28;5012434;28;19948;-50
2023/05/31 06:02:24;;;;;;;;;;;21.50;43.20;;;16.32;58.03;95567.88;5006686;28;19917;-52
2023/05/31 06:04:49;;;;;;;;;;;21.70;43.00;;;16.42;57.93;95565.78;4993770;28;20395;-53
2023/05/31 06:07:16;;;;;;;;;;;21.90;42.90;;;16.41;57.03;95572.25;5010595;28;19967;-54
2023/05/31 06:09:42;;;;;;;;;;;22.10;42.70;;;16.49;56.97;95572.66;5011783;28;19913;-49
2023/05/31 06:12:09;;;;;;;;;;;22.20;42.40;;;16.68;56.92;95573.28;5011953;28;20001;-55
2023/05/31 06:14:35;;;;;;;;;;;22.40;42.30;;;16.87;55.89;95576.66;5008982;28;20390;-52
2023/05/31 06:17:00;;;;;;;;;;;22.50;42.00;;;16.98;55.19;95581.78;5010845;28;20028;-51
2023/05/31 06:19:26;;;;;;;;;;;22.70;41.90;;;16.68;55.44;95581.38;5005236;28;20652;-54
2023/05/31 06:21:56;;;;;;;;;;;22.80;41.60;;;16.79;56.10;95585.44;5012020;28;19951;-49
2023/05/31 06:24:21;;;;;;;;;;;22.80;41.30;;;16.61;56.19;95589.84;5012047;28;20381;-49
2023/05/31 06:26:47;;;;;;;;;;;22.90;41.10;;;16.83;55.98;95588.34;5010647;28;19924;-51
2023/05/31 06:29:13;;;;;;;;;;;23.00;40.90;;;17.14;55.64;95588.38;5010512;28;20007;-50
2023/05/31 06:31:39;;;;;;;;;;;23.10;40.90;;;17.40;53.67;95588.59;5010854;28;19909;-51
2023/05/31 06:34:06;;;;;;;;;;;23.20;40.70;;;17.29;54.31;95579.16;4996673;28;20347;-51
2023/05/31 06:36:31;;;;;;;;;;;23.30;40.50;;;16.93;55.72;95588.09;5011387;28;19909;-52
2023/05/31 06:38:58;;;;;;;;;;;23.50;40.40;;;16.78;55.77;95586.53;5007947;28;20348;-55
2023/05/31 06:41:26;;;;;;;;;;;23.50;40.10;;;16.93;55.40;95582.72;5011553;28;20405;-49
2023/05/31 06:43:52;;;;;;;;;;;23.60;40.00;;;17.05;54.87;95587.56;5003851;28;19909;-49
2023/05/31 06:46:17;;;;;;;;;;;23.60;39.80;;;17.15;54.60;95590.00;5002578;28;20502;-49
2023/05/31 06:48:43;;;;;;;;;;;23.70;39.70;;;17.16;55.24;95574.66;4991358;28;19921;-51
2023/05/31 06:51:10;;;;;;;;;;;23.70;39.60;;;17.33;54.92;95582.84;5011815;28;19909;-51
2023/05/31 06:53:36;;;;;;;;;;;23.80;39.50;;;17.74;54.19;95576.41;5009880;28;19993;-52
2023/05/31 06:56:02;;;;;;;;;;;23.90;39.50;;;18.01;52.41;95573.53;5008901;28;20287;-52
2023/05/31 06:58:31;;;;;;;;;;;24.10;39.40;;;17.98;52.68;95578.75;5008762;28;19945;-49
2023/05/31 07:00:58;;;;;;;;;;;24.20;39.20;;;18.07;52.81;95578.78;4998329;28;20485;-51
2023/05/31 07:03:23;;;;;;;;;;;24.40;39.10;;;18.12;52.23;95575.97;4997949;28;20411;-53
2023/05/31 07:05:49;;;;;;;;;;;24.60;38.90;;;18.01;52.23;95575.44;5001663;28;20004;-50
2023/05/31 07:08:15;;;;;;;;;;;24.70;38.70;;;17.92;52.47;95569.22;5006932;28;19917;-49
2023/05/31 07:10:41;;;;;;;;;;;24.80;38.40;;;17.73;52.90;95588.28;5000976;28;20004;-51
2023/05/31 07:13:07;;;;;;;;;;;24.90;38.10;;;17.72;52.48;95571.31;5007828;28;20401;-49
2023/05/31 07:15:36;;;;;;;;;;;24.90;37.80;;;17.77;51.83;95575.81;5010682;28;19919;-50
2023/05/31 07:18:02;;;;;;;;;;;24.90;37.60;;;17.74;52.00;95577.22;5011186;28;19920;-52
2023/05/31 07:20:27;;;;;;;;;;;24.90;37.40;;;17.85;51.81;95574.25;5010757;28;19909;-52
2023/05/31 07:22:53;;;;;;;;;;;24.90;37.30;;;17.83;51.71;95569.19;5026613;28;19913;-54
2023/05/31 07:25:19;;;;;;;;;;;25.00;37.20;;;18.13;51.27;95577.53;5010779;28;19909;-49
2023/05/31 07:27:45;;;;;;;;;;;25.00;37.10;;;18.42;50.78;95574.28;4993726;28;20390;-51
2023/05/31 07:30:10;;;;;;;;;;;25.10;37.10;;;18.52;51.02;95576.69;4993639;28;19917;-52
2023/05/31 07:32:36;;;;;;;;;;;25.20;37.10;;;18.49;51.18;95571.94;5007020;28;19932;-54
2023/05/31 07:35:03;;;;;;;;;;;25.40;37.10;;;18.77;50.32;95568.94;5005657;28;20007;-56
2023/05/31 07:37:29;;;;;;;;;;;25.50;36.90;;;19.17;49.43;95575.75;5011781;28;19913;-52
2023/05/31 07:39:55;;;;;;;;;;;25.60;36.70;;;19.08;48.38;95579.59;5004570;28;20395;-54
2023/05/31 07:42:20;;;;;;;;;;;25.80;36.60;;;18.87;49.15;95574.84;4995473;28;20000;-53
2023/05/31 07:44:48;;;;;;;;;;;25.90;36.30;;;19.19;47.91;95576.25;5005139;28;19912;-54
2023/05/31 07:47:15;;;;;;;;;;;26.00;36.20;;;19.40;47.80;95579.09;5014846;28;20058;-51
2023/05/31 07:49:41;;;;;;;;;;;26.10;36.10;;;18.79;49.28;95580.22;5003636;28;19929;-50
2023/05/31 07:52:08;;;;;;;;;;;26.20;35.80;;;19.11;49.17;95562.75;5008364;28;19910;-53
2023/05/31 07:54:33;;;;;;;;;;;26.30;36.20;;;19.49;48.01;95573.69;5005760;28;19916;-51
2023/05/31 07:57:00;;;;;;;;;;;26.40;35.60;;;19.59;47.26;95572.53;5000686;28;19916;-52
2023/05/31 07:59:26;;;;;;;;;;;26.50;35.40;;;19.76;47.21;95572.50;5014618;28;20004;-50
2023/05/31 08:01:52;;;;;;;;;;;26.50;35.20;;;19.83;46.85;95574.69;5000463;28;20004;-51
2023/05/31 08:04:17;;;;;;;;;;;26.70;35.20;;;20.08;47.16;95564.91;5005449;28;19995;-52
2023/05/31 08:06:43;;;;;;;;;;;26.80;35.10;;;20.41;45.90;95559.63;5012852;28;19925;-49
2023/05/31 08:09:09;;;;;;;;;;;26.90;35.10;;;20.63;45.42;95558.56;5005167;28;19917;-53
2023/05/31 08:11:35;;;;;;;;;;;27.10;34.90;;;20.69;45.43;95567.28;5014771;28;20371;-50
2023/05/31 08:14:05;;;;;;;;;;;27.30;34.80;;;20.44;45.91;95563.59;5013974;28;19956;-57
2023/05/31 08:16:33;;;;;;;;;;;27.50;34.60;;;20.34;46.38;95570.19;5018063;28;19909;-50
2023/05/31 08:18:59;;;;;;;;;;;27.50;34.40;;;20.74;45.06;95557.03;5029088;28;19913;-53
2023/05/31 08:21:24;;;;;;;;;;;27.60;34.20;;;20.96;44.66;95560.53;5031863;28;19916;-52
2023/05/31 08:23:50;;;;;;;;;;;27.80;34.20;;;20.97;44.54;95554.81;5034155;28;19909;-54
2023/05/31 08:26:16;;;;;;;;;;;27.90;34.00;;;20.71;44.83;95554.22;5014759;28;19913;-54
2023/05/31 08:28:42;;;;;;;;;;;28.10;33.90;;;20.38;46.27;95560.28;5032597;28;19908;-50
2023/05/31 08:31:08;;;;;;;;;;;28.20;33.80;;;20.88;45.92;95559.50;5031123;28;19912;-53
2023/05/31 08:33:34;;;;;;;;;;;28.30;33.70;;;21.51;44.16;95550.53;5042477;28;20264;-51
2023/05/31 08:36:03;;;;;;;;;;;28.40;33.70;;;21.74;42.71;95553.59;5033050;28;19915;-51
2023/05/31 08:38:30;;;;;;;;;;;28.50;33.40;;;21.96;42.96;95553.19;5025814;28;19908;-55
2023/05/31 08:41:02;;;;;;;;;;;28.70;33.30;;;21.64;41.57;95561.03;5032082;28;19913;-53
2023/05/31 08:43:28;;;;;;;;;;;28.80;33.10;;;20.66;44.55;95559.84;5025255;28;19913;-54
2023/05/31 08:45:55;;;;;;;;;;;28.90;32.70;;;21.42;42.85;95554.09;5032759;28;20390;-54
2023/05/31 08:48:51;;;;;;;;;;;29.00;32.70;;;21.15;43.33;95554.63;5033103;28;19955;-56
2023/05/31 08:51:18;;;;;;;;;;;29.00;32.30;;;21.18;45.10;95553.97;5017402;28;19913;-56
2023/05/31 08:53:47;;;;;;;;;;;29.00;32.30;;;21.67;43.74;95551.44;5032847;28;20058;-49
2023/05/31 08:56:13;;;;;;;;;;;29.00;32.10;;;21.16;43.80;95550.81;5011069;28;20007;-53
2023/05/31 08:58:42;;;;;;;;;;;29.10;32.00;;;21.16;43.83;95550.81;5011376;28;19948;-53
2023/05/31 09:01:08;;;;;;;;;;;29.10;31.90;;;21.70;42.07;95550.78;5015113;28;19955;-53
2023/05/31 09:03:36;;;;;;;;;;;29.10;31.80;;;21.66;41.59;95555.28;5014146;28;19948;-52
2023/05/31 09:06:02;;;;;;;;;;;29.20;31.80;;;21.03;43.34;95555.41;5039015;23;19925;-50
2023/05/31 09:08:33;;;;;;;;;;;29.20;31.50;;;21.16;44.55;95556.25;5010210;28;20320;-49
2023/05/31 09:11:01;;;;;;;;;;;29.20;31.30;;;21.75;43.90;95552.47;5026492;28;19913;-48
2023/05/31 09:13:27;;;;;;;;;;;29.20;31.30;;;22.36;42.20;95557.97;5012147;28;20000;-47
2023/05/31 09:15:53;;;;;;;;;;;29.40;31.60;;;22.66;41.20;95560.41;5012481;28;19909;-46
2023/05/31 09:18:21;;;;;;;;;;;29.50;31.40;;;22.84;40.82;95548.13;5010931;28;20382;-48
2023/05/31 09:20:55;;;;;;;;;;;29.80;31.40;;;23.08;40.57;95558.19;5012054;28;20409;-47
2023/05/31 09:23:21;;;;;;;;;;;29.90;31.20;;;22.49;41.19;95562.25;5013293;28;19940;-48
2023/05/31 09:25:49;;;;;;;;;;;30.10;31.20;;;22.80;41.92;95561.63;5011664;28;20349;-47
2023/05/31 09:28:21;;;;;;;;;;;30.20;31.10;;;23.36;40.25;95560.09;5012445;28;19909;-47
2023/05/31 09:31:09;;;;;;;;;;;30.30;31.00;;;23.58;39.34;95556.03;4998749;28;19913;-51
2023/05/31 09:33:42;;;;;;;;;;;30.60;31.10;;;24.10;39.38;95564.00;5008548;28;19963;-47
2023/05/31 09:36:12;;;;;;;;;;;30.80;31.00;;;24.09;38.46;95567.84;5003930;28;19961;-47
2023/05/31 09:38:39;;;;;;;;;;;30.90;30.80;;;24.18;39.00;95559.50;5010927;28;19913;-45
2023/05/31 09:41:20;;;;;;;;;;;31.10;30.70;;;23.85;38.88;95557.94;5011557;28;20415;-50
2023/05/31 09:43:50;;;;;;;;;;;31.20;30.40;;;24.17;38.98;95556.00;5002150;28;20272;-47
2023/05/31 09:46:21;;;;;;;;;;;31.30;30.20;;;24.29;38.59;95546.13;5012010;28;20007;-45
2023/05/31 09:49:03;;;;;;;;;;;31.40;30.70;;;24.70;37.98;95533.88;5010415;28;19909;-49
2023/05/31 09:51:33;;;;;;;;;;;31.50;30.10;;;24.81;38.39;95536.84;5008708;28;19909;-50
2023/05/31 09:54:10;;;;;;;;;;;31.60;29.90;;;24.99;37.34;95553.56;5011926;28;19958;-47
2023/05/31 09:56:40;;;;;;;;;;;31.70;29.90;;;24.46;38.91;95541.13;5011026;28;20027;-47
2023/05/31 09:59:07;;;;;;;;;;;31.80;29.80;;;24.52;39.31;95549.03;5011597;28;19962;-45
2023/05/31 10:01:35;;;;;;;;;;;31.90;29.70;;;24.54;38.36;95528.50;4998269;28;20310;-45
2023/05/31 10:04:03;;;;;;;;;;;32.00;30.20;;;24.61;39.06;95536.03;5011556;28;19909;-46
2023/05/31 10:06:36;;;;;;;;;;;32.10;29.70;;;24.34;38.43;95529.56;5011291;28;20003;-45
2023/05/31 10:09:03;;;;;;;;;;;32.10;29.50;;;24.80;37.90;95533.31;5010124;28;19912;-45
2023/05/31 10:11:37;;;;;;;;;;;32.20;30.00;;;24.60;37.34;95518.09;5011626;28;20429;-45
2023/05/31 10:14:13;;;;;;;;;;;32.30;29.30;;;24.59;37.70;95525.47;5010855;28;19948;-45
2023/05/31 10:16:49;;;;;;;;;;;32.30;29.20;;;24.86;37.89;95526.44;4997928;28;20362;-45
2023/05/31 10:19:24;;;;;;;;;;;32.40;29.20;;;24.28;37.48;95517.34;5019744;28;19913;-45
2023/05/31 10:21:50;;;;;;;;;;;32.50;29.10;;;23.97;38.13;95517.06;5011795;28;19916;-45
2023/05/31 10:24:32;;;;;;;;;;;32.50;28.90;;;24.62;37.20;95519.31;5011697;28;19909;-45
2023/05/31 10:27:14;;;;;;;;;;;32.50;28.80;;;24.05;37.95;95507.13;5010399;28;19999;-49
2023/05/31 10:29:48;;;;;;;;;;;32.40;28.70;;;24.48;37.54;95512.78;4998899;28;19934;-45
2023/05/31 10:32:20;;;;;;;;;;;32.40;28.70;;;25.04;37.91;95518.66;4999995;28;19913;-47
2023/05/31 10:34:47;;;;;;;;;;;32.50;28.60;;;24.87;37.83;95521.78;5022953;28;19916;-46
2023/05/31 10:37:13;;;;;;;;;;;32.60;28.70;;;24.97;35.79;95517.69;5005617;28;20325;-45
2023/05/31 10:40:06;;;;;;;;;;;32.70;28.60;;;25.38;36.20;95508.81;5010815;28;19996;-46
2023/05/31 10:43:07;;;;;;;;;;;32.80;28.50;;;25.74;36.26;95500.47;5011337;28;19916;-46
2023/05/31 10:45:32;;;;;;;;;;;32.90;28.40;;;25.49;36.39;95510.94;5008618;28;19913;-47
2023/05/31 10:48:40;;;;;;;;;;;33.10;28.40;;;25.16;36.99;95515.00;5011344;28;19920;-48
2023/05/31 10:51:06;;;;;;;;;;;33.20;28.40;;;25.13;36.52;95508.34;5010554;28;19913;-48
2023/05/31 10:53:38;;;;;;;;;;;33.30;28.10;;;25.45;36.36;95499.19;5011157;28;20043;-46
2023/05/31 10:56:11;;;;;;;;;;;33.30;28.00;;;25.75;35.83;95502.03;5023568;28;20012;-47
2023/05/31 10:58:53;;;;;;;;;;;33.40;28.00;;;25.75;35.41;95500.09;5006001;28;20399;-45
2023/05/31 11:01:21;;;;;;;;;;;33.50;27.90;;;26.02;34.95;95498.22;5004006;28;19909;-47
2023/05/31 11:03:52;;;;;;;;;;;33.60;27.90;;;26.12;35.34;95493.31;5012483;28;19909;-47
2023/05/31 11:06:28;;;;;;;;;;;33.70;27.70;;;26.22;34.81;95496.19;5014546;28;19924;-46
2023/05/31 11:09:01;;;;;;;;;;;33.70;27.60;;;25.80;35.05;95501.75;5013437;28;20350;-48
2023/05/31 11:11:33;;;;;;;;;;;33.80;27.40;;;25.64;35.45;95482.78;5014872;28;20375;-47
2023/05/31 11:14:05;;;;;;;;;;;33.80;27.20;;;26.06;35.48;95490.88;5014532;28;19917;-51
2023/05/31 11:16:35;;;;;;;;;;;33.80;27.20;;;25.92;35.12;95493.41;5014473;28;19963;-47
2023/05/31 11:19:13;;;;;;;;;;;33.90;27.20;;;26.12;35.85;95496.03;5013640;28;19909;-47
2023/05/31 11:21:52;;;;;;;;;;;33.90;27.10;;;26.26;35.27;95496.25;5013139;28;19952;-49